Time;durP1;ratioP1;P1;durP2;ratioP2;P2;SDS_P1;SDS_P2;PMS_P1;PMS_P2;Temp;Humidity;BMP_temperature;BMP_pressure;BME280_temperature;BME280_humidity;BME280_pressure;Samples;Min_cycle;Max_cycle;Signal;HPM_P1;HPM_P2
2022/07/08 03:22:34;;;;;;;7.20;2.77;;;14.30;99.90;;;;;;4972916;28;20418;-72
2022/07/08 03:25:00;;;;;;;7.93;2.80;;;14.30;99.90;;;;;;4970070;28;20458;-72
2022/07/08 03:27:26;;;;;;;4.40;2.67;;;14.20;99.90;;;;;;4973804;28;20459;-73
2022/07/08 03:29:51;;;;;;;4.53;2.63;;;14.10;99.90;;;;;;4963182;28;20232;-73
2022/07/08 03:32:17;;;;;;;5.70;2.53;;;14.10;99.90;;;;;;4969485;28;20223;-74
2022/07/08 03:34:42;;;;;;;11.40;3.60;;;14.10;99.90;;;;;;4957579;28;20217;-73
2022/07/08 03:37:08;;;;;;;5.47;3.17;;;14.10;99.90;;;;;;4973594;28;20175;-72
2022/07/08 03:39:33;;;;;;;4.53;2.37;;;14.10;99.90;;;;;;4968999;28;20405;-75
2022/07/08 03:41:59;;;;;;;5.80;2.60;;;14.10;99.90;;;;;;4972135;28;20587;-72
2022/07/08 03:44:24;;;;;;;7.73;3.03;;;14.10;99.90;;;;;;4972620;28;20172;-73
2022/07/08 03:46:50;;;;;;;5.47;3.30;;;14.10;99.90;;;;;;4968184;28;20184;-74
2022/07/08 03:49:15;;;;;;;8.23;2.70;;;14.00;99.90;;;;;;4972401;28;20204;-73
2022/07/08 03:51:41;;;;;;;8.43;2.70;;;14.00;99.90;;;;;;4965166;28;20212;-73
2022/07/08 03:54:06;;;;;;;5.83;2.50;;;14.00;99.90;;;;;;4965767;28;20692;-73
2022/07/08 03:56:32;;;;;;;7.03;2.87;;;14.00;99.90;;;;;;4965619;28;20199;-73
2022/07/08 03:58:57;;;;;;;5.80;3.03;;;14.00;99.90;;;;;;4972467;28;20180;-73
2022/07/08 04:01:23;;;;;;;10.60;2.87;;;14.00;99.90;;;;;;4968086;28;20211;-74
2022/07/08 04:03:48;;;;;;;4.23;2.37;;;14.00;99.90;;;;;;4972744;28;20190;-72
2022/07/08 04:06:14;;;;;;;6.23;2.90;;;13.90;99.90;;;;;;4971865;28;20207;-74
2022/07/08 04:08:41;;;;;;;6.20;3.10;;;13.90;99.90;;;;;;4969043;28;20208;-73
2022/07/08 04:11:07;;;;;;;8.00;2.90;;;13.90;99.90;;;;;;4970662;28;20759;-72
2022/07/08 04:13:32;;;;;;;6.47;2.57;;;13.90;99.90;;;;;;4972581;28;20416;-73
2022/07/08 04:15:58;;;;;;;7.03;2.73;;;13.90;99.90;;;;;;4970871;28;20263;-73
2022/07/08 04:18:25;;;;;;;4.00;2.50;;;14.00;99.90;;;;;;4969184;28;20188;-72
2022/07/08 04:20:50;;;;;;;6.17;2.90;;;13.90;99.90;;;;;;4970701;28;20176;-73
2022/07/08 04:23:16;;;;;;;4.77;3.13;;;14.00;99.90;;;;;;4965668;28;20423;-71
2022/07/08 04:25:41;;;;;;;3.43;3.07;;;14.00;99.90;;;;;;4970845;28;20203;-73
2022/07/08 04:28:07;;;;;;;7.70;3.00;;;14.00;99.90;;;;;;4967622;28;20251;-72
2022/07/08 04:30:33;;;;;;;10.07;4.13;;;14.00;99.90;;;;;;4969895;28;20176;-69
2022/07/08 04:32:58;;;;;;;6.87;2.67;;;13.90;99.90;;;;;;4969099;28;20196;-72
2022/07/08 04:35:24;;;;;;;6.70;2.63;;;13.90;99.90;;;;;;4972707;28;20168;-72
2022/07/08 04:37:50;;;;;;;4.70;2.93;;;13.90;99.90;;;;;;4969451;28;20219;-73
2022/07/08 04:40:15;;;;;;;7.07;2.73;;;13.90;99.90;;;;;;4970414;28;20183;-72
2022/07/08 04:42:41;;;;;;;7.83;3.23;;;13.90;99.90;;;;;;4967514;28;20856;-72
2022/07/08 04:45:08;;;;;;;6.50;2.90;;;13.90;99.90;;;;;;4972147;28;20189;-72
2022/07/08 04:47:33;;;;;;;7.73;3.17;;;13.90;99.90;;;;;;4968458;28;20519;-72
2022/07/08 04:49:59;;;;;;;7.20;4.07;;;13.90;99.90;;;;;;4967843;28;20447;-72
2022/07/08 04:52:24;;;;;;;4.07;3.67;;;13.90;99.90;;;;;;4970413;28;20201;-72
2022/07/08 04:54:50;;;;;;;3.47;2.47;;;14.00;99.90;;;;;;4966111;28;20644;-72
2022/07/08 04:57:15;;;;;;;7.10;2.83;;;14.00;99.90;;;;;;4968954;28;20180;-70
2022/07/08 04:59:41;;;;;;;4.67;2.80;;;14.10;99.90;;;;;;4966207;28;20208;-73
2022/07/08 05:02:07;;;;;;;6.17;3.10;;;14.10;99.90;;;;;;4967689;28;20203;-72
2022/07/08 05:04:32;;;;;;;4.90;2.57;;;14.10;99.90;;;;;;4973258;28;20426;-73
2022/07/08 05:06:58;;;;;;;6.03;2.80;;;14.20;99.90;;;;;;4982709;28;20182;-72
2022/07/08 05:09:24;;;;;;;5.57;2.43;;;14.50;99.90;;;;;;4977495;28;20576;-73
2022/07/08 05:11:49;;;;;;;11.47;2.87;;;14.80;99.90;;;;;;4968567;28;20682;-74
2022/07/08 05:14:15;;;;;;;6.53;2.20;;;15.20;99.90;;;;;;4976837;28;20220;-72
2022/07/08 05:16:41;;;;;;;5.60;2.30;;;15.40;99.90;;;;;;4971428;28;20188;-75
2022/07/08 05:19:08;;;;;;;7.03;3.33;;;15.80;99.90;;;;;;4955438;28;20195;-74
2022/07/08 05:21:36;;;;;;;5.17;2.10;;;16.20;99.90;;;;;;4967611;28;20470;-74
2022/07/08 05:24:05;;;;;;;9.47;2.70;;;16.60;99.90;;;;;;4970287;28;21322;-74
2022/07/08 05:26:31;;;;;;;12.47;2.53;;;17.00;99.90;;;;;;4967138;28;20442;-73
2022/07/08 05:28:56;;;;;;;14.40;2.40;;;17.50;99.90;;;;;;4970971;28;20478;-72
2022/07/08 05:31:22;;;;;;;10.17;2.50;;;17.90;99.90;;;;;;4967069;28;20302;-74
2022/07/08 05:33:47;;;;;;;10.50;2.83;;;18.10;99.90;;;;;;4969963;28;20307;-74
2022/07/08 05:36:13;;;;;;;4.27;1.67;;;18.10;99.90;;;;;;4967293;28;20187;-76
2022/07/08 05:38:39;;;;;;;4.90;1.77;;;18.20;99.90;;;;;;4970934;28;20215;-75
2022/07/08 05:41:04;;;;;;;5.00;1.73;;;18.40;99.90;;;;;;4967598;28;20229;-74
2022/07/08 05:43:30;;;;;;;10.17;2.20;;;18.70;99.90;;;;;;4969715;28;20531;-75
2022/07/08 05:45:55;;;;;;;2.60;1.83;;;19.00;99.90;;;;;;4966242;28;20200;-72
2022/07/08 05:48:21;;;;;;;6.40;1.80;;;19.20;99.90;;;;;;4971368;28;20238;-74
2022/07/08 05:50:47;;;;;;;2.00;1.50;;;19.30;99.90;;;;;;4968403;28;20645;-74
2022/07/08 05:53:16;;;;;;;7.50;1.70;;;19.40;99.90;;;;;;4960989;28;20535;-74
2022/07/08 05:55:43;;;;;;;6.43;1.70;;;19.50;99.90;;;;;;4967842;28;20913;-74
2022/07/08 05:58:08;;;;;;;7.07;1.60;;;19.50;99.90;;;;;;4970010;28;20435;-74
2022/07/08 06:00:34;;;;;;;5.07;1.30;;;19.70;99.90;;;;;;4969588;28;20419;-71
2022/07/08 06:02:59;;;;;;;2.37;1.60;;;19.80;99.90;;;;;;4968349;28;20192;-75
2022/07/08 06:05:25;;;;;;;6.43;1.47;;;20.00;99.90;;;;;;4970862;28;20195;-74
2022/07/08 06:07:50;;;;;;;9.90;1.80;;;20.30;99.90;;;;;;4969614;28;20735;-74
2022/07/08 06:10:16;;;;;;;6.37;1.27;;;20.30;99.90;;;;;;4970944;28;20454;-74
2022/07/08 06:12:41;;;;;;;2.80;1.83;;;20.20;99.90;;;;;;4967764;28;20291;-74
2022/07/08 06:15:07;;;;;;;13.03;2.80;;;20.20;99.90;;;;;;4974717;28;20196;-72
2022/07/08 06:17:36;;;;;;;5.17;2.40;;;20.30;99.90;;;;;;4970447;28;20262;-74
2022/07/08 06:20:02;;;;;;;5.90;1.80;;;20.40;99.90;;;;;;4974702;28;20485;-74
2022/07/08 06:22:28;;;;;;;7.10;1.80;;;20.80;99.90;;;;;;4972576;28;20921;-77
2022/07/08 06:24:55;;;;;;;7.67;1.60;;;20.60;99.90;;;;;;4971426;28;20250;-73
2022/07/08 06:27:20;;;;;;;3.73;1.57;;;20.80;99.90;;;;;;4972883;28;20180;-73
2022/07/08 06:29:46;;;;;;;4.40;1.40;;;21.00;99.90;;;;;;4974414;28;20419;-73
2022/07/08 06:32:11;;;;;;;8.03;1.83;;;21.30;99.90;;;;;;4970199;28;20225;-73
2022/07/08 06:34:37;;;;;;;3.67;1.43;;;21.30;99.90;;;;;;4970360;28;20184;-75
2022/07/08 06:37:03;;;;;;;4.53;1.57;;;21.20;99.90;;;;;;4974177;28;20191;-73
2022/07/08 06:39:28;;;;;;;5.23;1.37;;;21.00;99.90;;;;;;4971042;28;20188;-74
2022/07/08 06:41:54;;;;;;;4.77;1.67;;;21.00;99.90;;;;;;4973318;28;20226;-74
2022/07/08 06:44:19;;;;;;;1.87;1.00;;;21.10;99.90;;;;;;4969547;28;20223;-73
2022/07/08 06:46:45;;;;;;;5.00;1.10;;;20.90;99.90;;;;;;4971342;28;20203;-72
2022/07/08 06:49:10;;;;;;;7.23;1.50;;;20.70;99.90;;;;;;4970883;28;20302;-72
2022/07/08 06:51:36;;;;;;;8.27;1.10;;;20.50;99.90;;;;;;4972933;28;20219;-71
2022/07/08 06:56:45;;;;;;;3.03;1.10;;;20.40;99.90;;;;;;4954381;29;20562;-71
2022/07/08 06:59:11;;;;;;;2.60;0.80;;;20.20;99.90;;;;;;4958758;28;20439;-72
2022/07/08 07:01:37;;;;;;;7.63;0.87;;;20.70;99.90;;;;;;4970072;28;20221;-76
2022/07/08 07:04:03;;;;;;;4.97;1.10;;;21.30;99.90;;;;;;4971171;28;20867;-73
2022/07/08 07:06:29;;;;;;;2.80;0.97;;;21.30;99.90;;;;;;4972394;28;20210;-73
2022/07/08 07:08:54;;;;;;;3.53;0.90;;;21.20;99.90;;;;;;4972120;28;21060;-71
2022/07/08 07:11:20;;;;;;;2.50;1.10;;;21.00;99.90;;;;;;4972382;28;20227;-73
2022/07/08 07:13:47;;;;;;;4.67;1.20;;;20.70;99.90;;;;;;4973206;28;20188;-73
2022/07/08 07:16:13;;;;;;;2.50;1.07;;;20.40;99.90;;;;;;4968025;28;20184;-72
2022/07/08 07:18:39;;;;;;;4.20;1.20;;;20.60;99.90;;;;;;4969082;28;20431;-72
2022/07/08 07:21:04;;;;;;;3.70;1.17;;;21.20;99.90;;;;;;4968937;28;20491;-74
2022/07/08 07:23:30;;;;;;;4.10;1.23;;;21.80;99.90;;;;;;4972615;28;20553;-73
2022/07/08 07:25:56;;;;;;;3.60;1.10;;;22.10;99.90;;;;;;4969683;28;20901;-70
2022/07/08 07:28:21;;;;;;;11.47;1.50;;;22.10;99.90;;;;;;4971404;28;20226;-72
2022/07/08 07:30:47;;;;;;;6.30;1.00;;;21.40;99.90;;;;;;4968296;28;20435;-74
2022/07/08 07:33:12;;;;;;;3.93;0.90;;;20.60;99.90;;;;;;4970737;28;20196;-72
2022/07/08 07:35:38;;;;;;;4.60;0.90;;;20.40;99.90;;;;;;4971509;28;20207;-72
2022/07/08 07:38:03;;;;;;;5.03;1.03;;;20.50;99.90;;;;;;4970219;28;20238;-74
2022/07/08 07:40:29;;;;;;;5.10;1.43;;;20.50;99.90;;;;;;4970725;28;20227;-72
2022/07/08 07:42:54;;;;;;;5.00;1.30;;;20.40;99.90;;;;;;4970997;28;20251;-70
2022/07/08 07:45:20;;;;;;;6.13;1.43;;;20.40;99.90;;;;;;4973226;28;20644;-73
2022/07/08 07:47:45;;;;;;;2.30;0.93;;;20.10;99.90;;;;;;4965958;28;20238;-72
2022/07/08 07:50:12;;;;;;;9.00;1.40;;;19.80;99.90;;;;;;4972982;28;20211;-72
2022/07/08 07:52:38;;;;;;;4.00;1.20;;;19.30;99.90;;;;;;4968701;28;20227;-76
2022/07/08 07:55:05;;;;;;;3.90;1.57;;;19.20;99.90;;;;;;4967047;28;21011;-72
2022/07/08 07:57:30;;;;;;;4.00;1.20;;;19.50;99.90;;;;;;4968223;28;20463;-74
2022/07/08 07:59:56;;;;;;;7.90;1.27;;;20.00;99.90;;;;;;4972227;28;20803;-71
2022/07/08 08:02:21;;;;;;;3.43;0.80;;;20.30;99.90;;;;;;4969360;28;20211;-73
2022/07/08 08:04:47;;;;;;;2.70;0.87;;;20.50;99.90;;;;;;4972525;28;20181;-74
2022/07/08 08:07:12;;;;;;;2.63;0.90;;;21.20;99.90;;;;;;4970786;28;20183;-72
2022/07/08 08:09:38;;;;;;;2.53;1.33;;;21.90;99.90;;;;;;4971046;28;20188;-73
2022/07/08 08:12:04;;;;;;;6.73;0.97;;;22.60;99.90;;;;;;4971277;28;20673;-74
2022/07/08 08:14:29;;;;;;;3.53;1.03;;;22.90;99.90;;;;;;4973727;28;20168;-73
2022/07/08 08:16:55;;;;;;;7.20;1.47;;;23.00;99.90;;;;;;4968901;28;20439;-70
2022/07/08 08:19:20;;;;;;;2.40;1.10;;;22.70;99.90;;;;;;4969905;28;20183;-73
2022/07/08 08:21:46;;;;;;;1.93;1.00;;;22.40;99.90;;;;;;4971661;28;20200;-72
2022/07/08 08:24:11;;;;;;;1.37;1.07;;;22.30;99.90;;;;;;4969734;28;20216;-73
2022/07/08 08:26:37;;;;;;;2.83;1.10;;;21.90;99.90;;;;;;4972652;28;20179;-73
2022/07/08 08:29:03;;;;;;;2.63;0.83;;;21.60;99.90;;;;;;4969067;28;20211;-73
2022/07/08 08:31:28;;;;;;;5.70;1.00;;;21.40;99.90;;;;;;4969532;28;20211;-73
2022/07/08 08:33:54;;;;;;;2.40;1.00;;;21.20;99.90;;;;;;4969208;28;20383;-74
2022/07/08 08:36:19;;;;;;;2.73;0.90;;;20.90;99.90;;;;;;4972436;28;20207;-73
2022/07/08 08:38:46;;;;;;;1.23;1.00;;;20.80;99.90;;;;;;4971050;28;20199;-72
2022/07/08 08:41:12;;;;;;;2.50;1.00;;;20.60;99.90;;;;;;4968367;28;20606;-73
2022/07/08 08:43:38;;;;;;;1.97;1.20;;;20.60;99.90;;;;;;4969163;28;20432;-74
2022/07/08 08:46:05;;;;;;;4.70;1.37;;;20.90;99.90;;;;;;4971041;28;20968;-73
2022/07/08 08:48:35;;;;;;;1.93;1.13;;;20.90;99.90;;;;;;4954170;28;20215;-74
2022/07/08 08:51:03;;;;;;;4.97;1.07;;;21.00;99.90;;;;;;4969700;28;20534;-73
2022/07/08 08:53:37;;;;;;;3.10;1.00;;;20.80;99.90;;;;;;4968024;28;20540;-73
2022/07/08 08:56:03;;;;;;;5.73;1.57;;;20.60;99.90;;;;;;4970263;28;20422;-74
2022/07/08 08:58:30;;;;;;;6.03;1.10;;;20.30;99.90;;;;;;4971984;28;20931;-74
2022/07/08 09:00:55;;;;;;;1.57;0.93;;;20.10;99.90;;;;;;4962279;28;20208;-72
2022/07/08 09:03:21;;;;;;;3.90;1.00;;;19.60;99.90;;;;;;4971604;28;20782;-74
2022/07/08 09:05:48;;;;;;;2.90;0.87;;;19.80;99.90;;;;;;4967917;28;20669;-74
2022/07/08 09:08:14;;;;;;;4.60;1.83;;;20.00;99.90;;;;;;4971546;28;20200;-75
2022/07/08 09:10:39;;;;;;;2.30;1.27;;;20.20;99.90;;;;;;4966433;28;20462;-73
2022/07/08 09:13:12;;;;;;;3.20;1.30;;;20.40;99.90;;;;;;4970723;28;20200;-73
2022/07/08 09:15:41;;;;;;;4.20;1.03;;;21.20;99.90;;;;;;4966341;28;20530;-73
2022/07/08 09:18:09;;;;;;;5.57;1.00;;;22.40;99.90;;;;;;4967587;28;20462;-73
2022/07/08 09:20:48;;;;;;;3.83;1.23;;;23.30;99.90;;;;;;4969460;28;20774;-71
2022/07/08 09:23:20;;;;;;;4.03;1.20;;;24.20;99.90;;;;;;4968887;28;20423;-73
2022/07/08 09:25:48;;;;;;;6.63;1.00;;;24.40;99.90;;;;;;4967904;28;20824;-73
2022/07/08 09:28:16;;;;;;;1.73;1.10;;;25.20;99.90;;;;;;4967258;28;20459;-73
2022/07/08 09:30:44;;;;;;;7.27;1.10;;;25.60;99.90;;;;;;4966812;28;20439;-73
2022/07/08 09:33:11;;;;;;;2.80;0.90;;;26.20;99.90;;;;;;4967497;28;20447;-73
2022/07/08 09:35:39;;;;;;;2.70;0.93;;;26.50;99.90;;;;;;4969236;28;20502;-72
2022/07/08 09:38:08;;;;;;;2.60;0.90;;;26.30;99.90;;;;;;4970065;28;20427;-73
2022/07/08 09:40:35;;;;;;;3.17;1.00;;;26.60;99.90;;;;;;4970711;28;20427;-75
2022/07/08 09:43:02;;;;;;;5.47;1.00;;;26.90;99.90;;;;;;4966578;28;20494;-73
2022/07/08 09:45:32;;;;;;;2.57;1.20;;;26.80;99.90;;;;;;4969948;28;20459;-74
2022/07/08 09:48:06;;;;;;;1.97;1.30;;;26.90;99.90;;;;;;4970796;28;20473;-73
2022/07/08 09:50:42;;;;;;;1.67;0.90;;;26.20;99.90;;;;;;4974328;28;20802;-73
2022/07/08 09:53:22;;;;;;;2.03;0.93;;;26.50;99.90;;;;;;4970437;28;20435;-73
2022/07/08 09:55:52;;;;;;;1.50;0.73;;;26.40;99.90;;;;;;4967208;28;20438;-73
2022/07/08 09:58:20;;;;;;;2.07;1.07;;;26.70;99.90;;;;;;4971254;28;20435;-73
2022/07/08 10:00:47;;;;;;;3.10;1.00;;;26.00;99.90;;;;;;4973798;28;20421;-72
2022/07/08 10:03:13;;;;;;;5.50;1.53;;;25.10;99.90;;;;;;4971439;28;20462;-73
2022/07/08 10:05:40;;;;;;;3.40;1.13;;;25.30;99.90;;;;;;4974569;28;20466;-73
2022/07/08 10:08:07;;;;;;;8.20;1.40;;;26.00;99.90;;;;;;4973678;28;20573;-74
2022/07/08 10:10:33;;;;;;;4.23;1.10;;;26.30;99.90;;;;;;4974373;28;20494;-70
2022/07/08 10:13:00;;;;;;;5.47;1.47;;;26.40;99.20;;;;;;4972464;28;20447;-73
2022/07/08 10:15:27;;;;;;;4.97;1.20;;;26.10;97.90;;;;;;4971168;28;20438;-73
2022/07/08 10:17:54;;;;;;;3.90;1.50;;;26.80;99.90;;;;;;4968896;28;20432;-73
2022/07/08 10:20:22;;;;;;;5.17;1.07;;;27.10;98.80;;;;;;4974517;28;20430;-73
2022/07/08 10:22:51;;;;;;;4.13;1.10;;;27.40;97.60;;;;;;4972231;28;20793;-74
2022/07/08 10:25:20;;;;;;;6.80;0.80;;;27.90;99.00;;;;;;4969784;28;20541;-75
2022/07/08 10:27:46;;;;;;;1.60;0.60;;;28.00;97.50;;;;;;4973502;28;20557;-74
2022/07/08 10:30:20;;;;;;;4.63;0.93;;;28.20;97.50;;;;;;4973687;28;20423;-74
2022/07/08 10:32:47;;;;;;;2.40;0.80;;;27.90;97.00;;;;;;4970831;28;20477;-73
2022/07/08 10:35:14;;;;;;;1.83;1.00;;;27.80;96.70;;;;;;4970060;28;20431;-73
2022/07/08 10:37:46;;;;;;;1.47;0.87;;;27.90;95.70;;;;;;4973853;28;20481;-74
2022/07/08 10:40:11;;;;;;;3.57;1.07;;;28.20;97.00;;;;;;4970590;28;20506;-74
2022/07/08 10:42:37;;;;;;;4.93;0.97;;;28.50;96.80;;;;;;4973043;28;20994;-74
2022/07/08 10:45:03;;;;;;;4.53;1.00;;;28.60;95.70;;;;;;4969464;28;20531;-74
2022/07/08 10:47:28;;;;;;;3.67;0.80;;;28.40;93.50;;;;;;4961278;28;20563;-75
2022/07/08 10:50:04;;;;;;;4.80;1.00;;;28.30;95.80;;;;;;4971907;28;20258;-73
2022/07/08 10:52:38;;;;;;;5.57;1.37;;;28.70;93.60;;;;;;4973394;28;20187;-74
2022/07/08 10:55:11;;;;;;;1.97;0.80;;;28.60;93.30;;;;;;4966573;28;20492;-73
2022/07/08 10:57:36;;;;;;;3.57;1.23;;;28.60;93.40;;;;;;4971044;28;20792;-71
2022/07/08 11:00:13;;;;;;;5.03;0.90;;;28.60;94.10;;;;;;4969420;28;20458;-73
2022/07/08 11:02:45;;;;;;;5.53;1.33;;;28.70;92.60;;;;;;4970496;28;20231;-73
2022/07/08 11:05:32;;;;;;;1.60;0.83;;;28.40;93.60;;;;;;4967661;28;20446;-73
2022/07/08 11:08:20;;;;;;;2.70;0.70;;;28.30;92.90;;;;;;4972158;28;20489;-73
2022/07/08 11:10:46;;;;;;;2.87;1.10;;;27.60;93.20;;;;;;4969390;28;20448;-73
2022/07/08 11:13:12;;;;;;;2.77;0.90;;;27.00;92.40;;;;;;4972260;28;20819;-73
2022/07/08 11:15:38;;;;;;;1.70;0.93;;;27.00;93.60;;;;;;4969629;28;20437;-72
2022/07/08 11:18:04;;;;;;;2.57;0.70;;;26.50;94.30;;;;;;4971450;28;20188;-73
2022/07/08 11:20:31;;;;;;;1.60;0.90;;;26.90;95.00;;;;;;4970377;28;20800;-73
2022/07/08 11:22:57;;;;;;;2.97;1.23;;;26.70;94.40;;;;;;4972597;28;20502;-71
2022/07/08 11:25:23;;;;;;;5.50;1.47;;;26.80;94.50;;;;;;4972698;28;20411;-73
2022/07/08 11:27:49;;;;;;;1.80;0.90;;;27.00;94.30;;;;;;4969656;28;20463;-74
2022/07/08 11:30:16;;;;;;;3.23;1.00;;;26.80;93.60;;;;;;4973206;28;20924;-76
2022/07/08 11:32:47;;;;;;;9.30;1.00;;;26.80;95.00;;;;;;4968621;28;20230;-74
2022/07/08 11:35:13;;;;;;;2.50;0.93;;;26.90;94.70;;;;;;4973305;28;20403;-75
2022/07/08 11:37:46;;;;;;;3.07;1.00;;;26.70;94.80;;;;;;4968376;28;20450;-74
2022/07/08 11:40:13;;;;;;;4.17;1.33;;;26.60;94.20;;;;;;4973201;28;20415;-75
2022/07/08 11:42:39;;;;;;;3.13;0.80;;;26.80;95.40;;;;;;4968166;28;20979;-74
2022/07/08 11:45:06;;;;;;;4.60;1.00;;;26.70;94.30;;;;;;4972854;28;20769;-73
2022/07/08 11:47:32;;;;;;;3.10;1.07;;;26.20;93.70;;;;;;4967554;28;20440;-75
2022/07/08 11:49:58;;;;;;;2.07;0.77;;;25.90;93.70;;;;;;4972013;28;20483;-73
2022/07/08 11:52:27;;;;;;;4.80;0.87;;;25.80;95.10;;;;;;4968847;28;20227;-74
2022/07/08 11:54:53;;;;;;;2.20;0.80;;;25.60;94.80;;;;;;4966148;28;20191;-74
2022/07/08 11:57:21;;;;;;;3.27;0.87;;;25.40;94.20;;;;;;4971419;28;20441;-74
2022/07/08 11:59:48;;;;;;;6.00;0.97;;;25.40;94.80;;;;;;4969320;28;20506;-74
2022/07/08 12:02:22;;;;;;;3.10;0.93;;;25.10;95.70;;;;;;4967788;28;20482;-73
2022/07/08 12:04:49;;;;;;;3.53;1.30;;;25.30;95.10;;;;;;4972064;28;20495;-76
2022/07/08 12:07:25;;;;;;;1.43;0.70;;;25.40;95.30;;;;;;4971850;28;20423;-71
2022/07/08 12:10:03;;;;;;;7.50;0.80;;;25.40;96.50;;;;;;4962330;28;20531;-74
2022/07/08 12:12:30;;;;;;;2.50;0.90;;;25.20;96.10;;;;;;4971002;28;20415;-74
2022/07/08 12:14:56;;;;;;;1.30;0.90;;;25.10;95.60;;;;;;4970032;28;20415;-74
2022/07/08 12:17:26;;;;;;;2.17;0.93;;;25.00;94.90;;;;;;4970218;28;20511;-74
2022/07/08 12:19:53;;;;;;;1.23;0.77;;;24.90;96.40;;;;;;4967336;28;20665;-74
2022/07/08 12:22:40;;;;;;;3.83;1.13;;;24.70;95.20;;;;;;4971472;28;20430;-75
2022/07/08 12:25:06;;;;;;;2.50;1.10;;;24.50;95.50;;;;;;4971469;28;20510;-73
2022/07/08 12:27:32;;;;;;;2.77;0.80;;;24.50;96.80;;;;;;4972382;28;20490;-74
2022/07/08 12:30:03;;;;;;;2.20;1.00;;;24.60;95.80;;;;;;4967372;28;20185;-75
2022/07/08 12:32:45;;;;;;;2.20;0.60;;;24.50;95.70;;;;;;4969598;28;20712;-74
2022/07/08 12:35:12;;;;;;;5.90;1.10;;;24.30;95.90;;;;;;4958839;28;20436;-73
2022/07/08 12:37:39;;;;;;;2.50;0.90;;;24.50;96.40;;;;;;4952271;28;20427;-74
2022/07/08 12:40:18;;;;;;;2.30;1.00;;;24.40;96.80;;;;;;4961580;28;20443;-73
2022/07/08 12:43:03;;;;;;;2.70;1.17;;;24.40;97.50;;;;;;4950154;28;20447;-76
2022/07/08 12:45:29;;;;;;;2.20;0.80;;;24.40;95.50;;;;;;4962533;28;20947;-74
2022/07/08 12:47:55;;;;;;;5.00;0.90;;;24.30;96.00;;;;;;4969544;28;20474;-73
2022/07/08 12:50:21;;;;;;;2.40;1.43;;;24.40;96.60;;;;;;4968980;28;20266;-76
2022/07/08 12:52:47;;;;;;;1.93;0.90;;;24.50;97.40;;;;;;4968729;28;20449;-73
2022/07/08 12:55:12;;;;;;;4.13;1.23;;;24.50;97.00;;;;;;4965753;28;20240;-74
2022/07/08 12:57:38;;;;;;;5.50;1.47;;;24.50;97.40;;;;;;4971527;28;20197;-75
2022/07/08 13:00:05;;;;;;;2.50;0.80;;;24.50;97.10;;;;;;4970052;28;20184;-74
2022/07/08 13:02:30;;;;;;;2.60;1.10;;;24.40;96.90;;;;;;4961301;28;20287;-73
2022/07/08 13:04:56;;;;;;;2.50;1.03;;;24.50;97.40;;;;;;4952531;28;21076;-73
2022/07/08 13:07:22;;;;;;;1.73;0.70;;;24.40;96.90;;;;;;4969656;28;20204;-76
2022/07/08 13:09:48;;;;;;;2.27;0.90;;;24.30;97.70;;;;;;4971661;28;20172;-73
2022/07/08 13:12:13;;;;;;;2.20;0.77;;;24.30;98.10;;;;;;4961717;28;20455;-74
2022/07/08 13:14:39;;;;;;;3.43;1.17;;;23.90;96.50;;;;;;4951548;28;20180;-74
2022/07/08 13:17:04;;;;;;;2.30;1.30;;;23.80;98.80;;;;;;4961509;28;20212;-74
2022/07/08 13:19:30;;;;;;;2.70;1.23;;;24.00;99.80;;;;;;4971683;28;20645;-74
2022/07/08 13:21:56;;;;;;;2.57;1.10;;;24.20;99.90;;;;;;4967852;28;20220;-72
2022/07/08 13:24:22;;;;;;;4.70;1.20;;;24.20;98.50;;;;;;4972837;28;20577;-73
2022/07/08 13:26:49;;;;;;;4.30;0.90;;;24.10;97.10;;;;;;4972356;28;20467;-74
2022/07/08 13:29:14;;;;;;;2.70;1.13;;;23.90;97.80;;;;;;4975761;28;20500;-76
2022/07/08 13:31:39;;;;;;;1.70;0.80;;;23.80;98.40;;;;;;4971148;28;20468;-74
2022/07/08 13:34:05;;;;;;;2.30;0.77;;;23.90;99.10;;;;;;4971975;28;20192;-74
2022/07/08 13:36:31;;;;;;;2.13;0.90;;;23.70;98.90;;;;;;4973494;28;20180;-74
2022/07/08 13:38:56;;;;;;;7.03;1.50;;;23.40;97.90;;;;;;4974264;28;20183;-73
2022/07/08 13:41:29;;;;;;;1.43;0.80;;;23.20;98.80;;;;;;4974203;28;20200;-73
2022/07/08 13:43:55;;;;;;;8.10;1.10;;;23.40;99.90;;;;;;4967945;28;20196;-72
2022/07/08 13:46:21;;;;;;;3.10;1.13;;;23.60;99.90;;;;;;4954766;28;20557;-73
2022/07/08 13:48:46;;;;;;;3.43;1.57;;;23.60;99.90;;;;;;4968806;28;20658;-76
2022/07/08 13:51:11;;;;;;;2.47;0.93;;;23.60;99.60;;;;;;4972847;28;20588;-73
2022/07/08 13:53:37;;;;;;;3.30;0.90;;;23.80;99.90;;;;;;4966085;28;20212;-74
2022/07/08 13:56:04;;;;;;;2.30;1.03;;;23.70;97.90;;;;;;4970447;28;20220;-73
2022/07/08 13:58:29;;;;;;;4.30;1.30;;;23.80;98.40;;;;;;4970998;28;21092;-74
2022/07/08 14:00:55;;;;;;;2.23;1.17;;;23.70;97.30;;;;;;4972613;28;20460;-73
2022/07/08 14:03:21;;;;;;;6.47;1.43;;;23.40;98.20;;;;;;4968381;28;20210;-74
2022/07/08 14:05:46;;;;;;;3.77;0.90;;;23.30;97.70;;;;;;4973197;28;20230;-73
2022/07/08 14:08:12;;;;;;;4.07;1.30;;;23.20;98.20;;;;;;4971639;28;20306;-76
2022/07/08 14:10:37;;;;;;;2.63;1.47;;;23.30;98.90;;;;;;4972543;28;20691;-72
2022/07/08 14:13:03;;;;;;;5.50;1.50;;;23.30;99.90;;;;;;4973088;28;20200;-72
2022/07/08 14:15:28;;;;;;;3.53;0.93;;;23.20;99.30;;;;;;4968428;28;20302;-71
2022/07/08 14:17:54;;;;;;;5.33;1.20;;;23.20;99.90;;;;;;4971414;28;20239;-72
2022/07/08 14:20:19;;;;;;;2.03;1.13;;;23.40;99.90;;;;;;4972257;28;20208;-72
2022/07/08 14:22:45;;;;;;;4.43;1.27;;;23.40;99.90;;;;;;4971841;28;20324;-71
2022/07/08 14:25:10;;;;;;;3.90;1.40;;;23.40;99.90;;;;;;4969674;28;20685;-71
2022/07/08 14:27:36;;;;;;;7.53;1.40;;;23.40;99.90;;;;;;4973743;28;20223;-72
2022/07/08 14:30:02;;;;;;;9.30;1.47;;;23.40;99.70;;;;;;4964678;28;20238;-74
2022/07/08 14:32:28;;;;;;;4.13;1.20;;;23.30;99.90;;;;;;4959122;28;20235;-72
2022/07/08 14:34:53;;;;;;;5.60;1.70;;;23.40;99.90;;;;;;4974230;28;20459;-72
2022/07/08 14:37:19;;;;;;;5.80;1.00;;;23.40;99.90;;;;;;4973526;28;20216;-71
2022/07/08 14:39:45;;;;;;;6.80;1.10;;;23.40;99.90;;;;;;4970337;28;20670;-72
2022/07/08 14:42:10;;;;;;;3.50;1.00;;;23.40;99.90;;;;;;4973165;28;20727;-71
2022/07/08 14:44:36;;;;;;;1.90;1.00;;;23.30;99.90;;;;;;4974322;28;20904;-71
2022/07/08 14:47:02;;;;;;;1.77;0.87;;;23.20;99.90;;;;;;4960110;28;20267;-71
2022/07/08 14:49:27;;;;;;;2.40;1.40;;;23.10;99.00;;;;;;4954710;28;20303;-69
2022/07/08 14:51:53;;;;;;;5.63;1.33;;;23.10;99.50;;;;;;4967442;28;20299;-72
2022/07/08 14:54:19;;;;;;;3.80;1.33;;;22.90;98.90;;;;;;4965670;28;20288;-73
2022/07/08 14:56:44;;;;;;;6.37;1.47;;;22.80;98.50;;;;;;4969698;28;20438;-72
2022/07/08 14:59:10;;;;;;;1.93;1.10;;;22.80;99.50;;;;;;4973790;28;20231;-72
2022/07/08 15:01:35;;;;;;;5.40;1.30;;;22.80;99.90;;;;;;4968899;28;20223;-73
2022/07/08 15:04:01;;;;;;;3.27;1.07;;;22.90;99.90;;;;;;4975347;28;20255;-70
2022/07/08 15:06:27;;;;;;;2.60;1.23;;;22.90;99.30;;;;;;4970323;28;20769;-72
2022/07/08 15:08:53;;;;;;;1.97;0.90;;;22.90;99.90;;;;;;4955947;28;20683;-72
2022/07/08 15:11:18;;;;;;;2.00;1.07;;;22.90;99.00;;;;;;4956372;28;20221;-71
2022/07/08 15:13:44;;;;;;;2.93;0.87;;;22.80;99.30;;;;;;4974358;28;20458;-71
2022/07/08 15:16:10;;;;;;;2.53;1.10;;;22.70;99.00;;;;;;4973459;28;20761;-71
2022/07/08 15:18:35;;;;;;;3.00;1.37;;;22.70;99.50;;;;;;4968407;28;20191;-71
2022/07/08 15:21:01;;;;;;;8.43;1.33;;;22.70;99.90;;;;;;4974335;28;20199;-72
2022/07/08 15:23:26;;;;;;;3.20;1.37;;;22.70;99.90;;;;;;4959385;28;20185;-72
2022/07/08 15:25:52;;;;;;;2.23;1.43;;;22.70;99.90;;;;;;4954931;28;20267;-71
2022/07/08 15:28:18;;;;;;;1.47;0.90;;;22.70;99.50;;;;;;4964354;28;20212;-72
2022/07/08 15:30:43;;;;;;;4.50;1.10;;;22.80;99.90;;;;;;4972253;28;20179;-72
2022/07/08 15:33:09;;;;;;;2.80;1.10;;;22.80;99.90;;;;;;4967430;28;20199;-71
2022/07/08 15:35:35;;;;;;;2.03;0.93;;;22.70;99.90;;;;;;4973410;28;20176;-74
2022/07/08 15:38:01;;;;;;;2.10;1.00;;;22.70;99.90;;;;;;4971158;28;20180;-72
2022/07/08 15:40:26;;;;;;;3.70;1.10;;;22.60;99.90;;;;;;4970540;28;20207;-72
2022/07/08 15:42:52;;;;;;;4.00;1.30;;;22.60;99.90;;;;;;4972030;28;20199;-70
2022/07/08 15:45:18;;;;;;;1.33;0.90;;;22.60;99.90;;;;;;4971233;28;20234;-72
2022/07/08 15:47:43;;;;;;;3.33;1.27;;;22.60;99.90;;;;;;4970078;28;20188;-72
2022/07/08 15:50:09;;;;;;;3.33;0.87;;;22.60;99.90;;;;;;4967460;28;20458;-73
2022/07/08 15:52:34;;;;;;;3.50;0.90;;;22.60;99.90;;;;;;4971967;28;20688;-72
2022/07/08 15:55:00;;;;;;;1.07;0.90;;;22.60;99.90;;;;;;4967482;28;20188;-72
2022/07/08 15:57:26;;;;;;;1.20;1.10;;;22.50;99.90;;;;;;4971082;28;20235;-72
2022/07/08 15:59:52;;;;;;;6.50;1.13;;;22.40;99.50;;;;;;4970143;28;20547;-74
2022/07/08 16:02:18;;;;;;;3.00;1.00;;;22.30;99.20;;;;;;4970663;28;20474;-75
2022/07/08 16:04:43;;;;;;;5.20;1.23;;;22.30;99.50;;;;;;4971503;28;20179;-74
2022/07/08 16:07:09;;;;;;;3.20;1.20;;;22.30;99.60;;;;;;4973777;28;20211;-72